Time;durP1;ratioP1;P1;durP2;ratioP2;P2;SDS_P1;SDS_P2;PMS_P1;PMS_P2;Temp;Humidity;BMP_temperature;BMP_pressure;BME280_temperature;BME280_humidity;BME280_pressure;Samples;Min_cycle;Max_cycle;Signal;HPM_P1;HPM_P2
2021/12/03 00:01:17;;;;;;;0.98;0.40;;;0.60;99.90;;;;;;20809947;28;20141;-53
2021/12/03 00:11:20;;;;;;;0.85;0.30;;;0.60;99.90;;;;;;20808874;28;20036;-51
2021/12/03 00:21:25;;;;;;;0.57;0.28;;;0.60;99.90;;;;;;20808704;28;20034;-47
2021/12/03 00:31:28;;;;;;;0.22;0.10;;;0.60;99.90;;;;;;20807624;28;20107;-51
2021/12/03 00:41:41;;;;;;;0.65;0.25;;;0.60;99.90;;;;;;20806779;28;20061;-47
2021/12/03 00:51:44;;;;;;;0.77;0.30;;;0.50;99.60;;;;;;20807321;28;20079;-47
2021/12/03 01:01:48;;;;;;;0.47;0.20;;;0.50;99.30;;;;;;20806416;28;20060;-48
2021/12/03 01:11:51;;;;;;;0.60;0.20;;;0.40;99.20;;;;;;20794996;28;20029;-48
2021/12/03 01:21:53;;;;;;;0.32;0.15;;;0.20;99.20;;;;;;20722244;28;20042;-48
2021/12/03 01:31:56;;;;;;;0.47;0.20;;;0.20;98.20;;;;;;20734913;28;20041;-53
2021/12/03 01:42:00;;;;;;;0.60;0.20;;;0.10;97.20;;;;;;20802223;28;20037;-50
2021/12/03 01:52:03;;;;;;;0.13;0.00;;;0.10;96.90;;;;;;20785809;28;20037;-48
2021/12/03 02:02:06;;;;;;;0.15;0.03;;;0.10;96.20;;;;;;20801117;28;20375;-48
2021/12/03 02:12:09;;;;;;;0.30;0.10;;;0.00;96.40;;;;;;20800631;28;20041;-52
2021/12/03 02:22:12;;;;;;;0.80;0.00;;;-0.10;95.50;;;;;;20800090;28;20034;-52
2021/12/03 02:32:15;;;;;;;0.20;0.00;;;0.00;95.70;;;;;;20800813;28;20049;-48
2021/12/03 02:42:18;;;;;;;0.10;0.00;;;-0.10;96.00;;;;;;20832479;28;20472;-51
2021/12/03 02:52:21;;;;;;;0.43;0.00;;;-0.20;95.30;;;;;;20816131;28;20033;-47
2021/12/03 03:02:24;;;;;;;0.10;0.10;;;-0.50;95.00;;;;;;20815846;28;20075;-52
2021/12/03 03:12:27;;;;;;;0.63;0.20;;;-0.50;95.50;;;;;;20800500;28;20042;-49
2021/12/03 03:22:30;;;;;;;0.30;0.10;;;-0.50;95.00;;;;;;20731414;28;20438;-53
2021/12/03 03:32:33;;;;;;;0.75;0.20;;;-0.70;95.60;;;;;;20748188;28;20041;-48
2021/12/03 03:42:37;;;;;;;0.50;0.20;;;-0.90;96.40;;;;;;20812127;28;20056;-52
2021/12/03 03:52:41;;;;;;;0.35;0.15;;;-1.10;96.40;;;;;;20809835;28;20385;-53
2021/12/03 04:02:46;;;;;;;0.30;0.10;;;-1.20;96.70;;;;;;20810024;28;20045;-50
2021/12/03 04:12:48;;;;;;;0.20;0.10;;;-1.40;96.60;;;;;;20809805;28;20127;-51
2021/12/03 04:22:51;;;;;;;0.10;0.00;;;-1.70;96.80;;;;;;20807647;28;20029;-53
2021/12/03 04:32:55;;;;;;;0.10;0.00;;;-1.50;95.50;;;;;;20806901;28;20460;-49
2021/12/03 04:42:58;;;;;;;0.30;0.10;;;-1.70;96.50;;;;;;20806550;28;20045;-48
2021/12/03 04:53:00;;;;;;;0.00;0.00;;;-1.90;96.30;;;;;;20805939;28;20041;-49
2021/12/03 05:03:04;;;;;;;0.10;0.00;;;-1.90;95.80;;;;;;20804475;28;20030;-50
2021/12/03 05:13:14;;;;;;;0.85;0.00;;;-2.00;95.60;;;;;;20783639;28;20446;-52
2021/12/03 05:23:17;;;;;;;0.00;0.00;;;-2.00;95.80;;;;;;20722656;28;20042;-48
2021/12/03 05:33:20;;;;;;;0.52;0.00;;;-2.20;96.00;;;;;;20744992;28;20049;-53
2021/12/03 05:43:22;;;;;;;0.00;0.00;;;-2.50;96.10;;;;;;20801496;28;20046;-53
2021/12/03 05:53:25;;;;;;;0.13;0.00;;;-2.90;97.40;;;;;;20800470;28;20106;-51
2021/12/03 06:03:28;;;;;;;0.25;0.00;;;-3.10;97.00;;;;;;20800141;28;20037;-49
2021/12/03 06:13:32;;;;;;;0.17;0.00;;;-2.70;96.70;;;;;;20798983;28;20107;-49
2021/12/03 06:23:34;;;;;;;0.10;0.00;;;-2.70;95.80;;;;;;20798929;28;20033;-51
2021/12/03 06:33:37;;;;;;;0.10;0.00;;;-2.60;95.50;;;;;;20798668;28;20525;-48
2021/12/03 06:43:40;;;;;;;1.13;0.00;;;-2.40;95.30;;;;;;20798831;28;20099;-51
2021/12/03 06:53:56;;;;;;;0.10;0.00;;;-2.20;94.70;;;;;;20798813;28;20038;-51
2021/12/03 07:03:59;;;;;;;0.00;0.00;;;-2.20;94.40;;;;;;20798087;28;20041;-53
2021/12/03 07:14:02;;;;;;;0.00;0.00;;;-1.90;94.10;;;;;;20770215;28;20100;-50
2021/12/03 07:24:05;;;;;;;0.03;0.00;;;-1.90;93.80;;;;;;20725264;28;20069;-51
2021/12/03 07:34:09;;;;;;;0.80;0.17;;;-1.80;93.60;;;;;;20760282;28;20042;-52
2021/12/03 07:44:12;;;;;;;0.20;0.00;;;-1.50;93.80;;;;;;20810585;28;20095;-52
2021/12/03 07:54:14;;;;;;;0.00;0.00;;;-0.80;92.60;;;;;;20810538;28;20076;-53
2021/12/03 08:04:17;;;;;;;0.03;0.00;;;-0.30;91.10;;;;;;20809326;28;20037;-52
2021/12/03 08:14:19;;;;;;;0.00;0.00;;;0.00;90.40;;;;;;20808129;28;20103;-50
2021/12/03 08:24:22;;;;;;;0.00;0.00;;;0.40;88.50;;;;;;20807499;28;20042;-53
2021/12/03 08:34:26;;;;;;;0.00;0.00;;;0.70;87.60;;;;;;20806136;28;20076;-50
2021/12/03 08:44:28;;;;;;;0.03;0.00;;;1.00;86.30;;;;;;20805947;28;20068;-53
2021/12/03 08:54:52;;;;;;;0.00;0.00;;;1.30;85.10;;;;;;20805602;28;20110;-50
2021/12/03 09:04:55;;;;;;;0.00;0.00;;;1.70;83.70;;;;;;20804672;28;20107;-50
2021/12/03 09:15:02;;;;;;;0.47;0.00;;;1.90;80.60;;;;;;20768724;28;20092;-54
2021/12/03 09:25:07;;;;;;;1.27;0.20;;;2.00;78.90;;;;;;20721477;28;20034;-51
2021/12/03 09:35:11;;;;;;;0.30;0.00;;;2.00;77.70;;;;;;20759975;28;20111;-51
2021/12/03 09:45:14;;;;;;;0.00;0.00;;;2.30;78.10;;;;;;20801066;28;20107;-50
2021/12/03 09:55:17;;;;;;;0.00;0.00;;;2.20;75.10;;;;;;20800933;28;20068;-48
2021/12/03 10:36:49;;;;;;;0.00;0.00;;;2.80;71.30;;;;;;20467943;29;20470;-50
2021/12/03 10:57:10;;;;;;;0.00;0.00;;;3.70;67.80;;;;;;20552231;28;20491;-50
2021/12/03 13:22:17;;;;;;;0.63;0.10;;;2.30;60.70;;;;;;20649215;28;19972;-49
2021/12/03 13:32:52;;;;;;;1.60;0.00;;;1.90;60.50;;;;;;20631204;28;20046;-50
2021/12/03 14:44:53;;;;;;;0.20;0.10;;;0.20;83.30;;;;;;20799092;28;20402;-54
2021/12/03 15:05:12;;;;;;;0.35;0.10;;;-0.90;88.00;;;;;;20798666;28;20033;-52
2021/12/03 15:16:07;;;;;;;0.35;0.10;;;-1.40;90.50;;;;;;20797998;28;20038;-50
2021/12/03 15:26:20;;;;;;;0.20;0.10;;;-2.00;92.50;;;;;;20797286;28;20095;-53
2021/12/03 15:36:18;;;;;;;0.20;0.00;;;-2.30;93.60;;;;;;20797285;28;20107;-52
2021/12/03 16:17:11;;;;;;;0.40;0.17;;;-3.40;99.80;;;;;;20809193;28;20438;-53
2021/12/03 16:58:03;;;;;;;1.17;0.40;;;-3.90;99.90;;;;;;20553677;28;20433;-51
2021/12/03 17:18:50;;;;;;;1.48;0.38;;;-3.90;99.90;;;;;;20509469;28;20078;-52
2021/12/03 17:49:23;;;;;;;1.10;0.40;;;-4.30;99.90;;;;;;20703295;28;20396;-49
2021/12/03 17:59:31;;;;;;;1.50;0.50;;;-4.30;99.90;;;;;;20640258;28;20042;-47
2021/12/03 19:01:02;;;;;;;1.35;0.57;;;-4.40;99.90;;;;;;20799968;28;20045;-52
2021/12/03 19:11:31;;;;;;;1.17;0.45;;;-4.40;99.90;;;;;;20795850;28;20045;-47
2021/12/03 19:21:32;;;;;;;1.08;0.60;;;-4.30;99.90;;;;;;20729425;28;20038;-48
2021/12/03 19:31:35;;;;;;;1.23;0.57;;;-4.30;99.90;;;;;;20740657;28;20050;-48
2021/12/03 19:52:05;;;;;;;2.15;0.80;;;-4.10;99.90;;;;;;20811803;28;20042;-48
2021/12/03 20:02:08;;;;;;;3.15;0.80;;;-4.10;99.90;;;;;;20811275;28;20033;-47
2021/12/03 20:12:17;;;;;;;0.85;0.43;;;-4.10;99.90;;;;;;20810686;28;20034;-47
2021/12/03 20:22:27;;;;;;;0.90;0.50;;;-4.20;99.90;;;;;;20809751;28;20084;-47
2021/12/03 20:42:39;;;;;;;1.15;0.50;;;-4.30;99.90;;;;;;20807514;28;20096;-49
2021/12/03 20:52:50;;;;;;;2.53;1.10;;;-4.00;99.90;;;;;;20807226;28;20417;-48
2021/12/03 21:13:10;;;;;;;4.22;2.03;;;-4.00;99.90;;;;;;20806556;28;20099;-47
2021/12/03 21:23:13;;;;;;;5.57;2.78;;;-4.10;99.90;;;;;;20805597;28;20092;-48
2021/12/03 21:37:58;;;;;;;8.18;3.88;;;-4.10;99.90;;;;;;20804180;28;20348;-49
2021/12/03 21:44:06;;;;;;;6.30;3.17;;;-4.20;99.90;;;;;;20803095;28;20138;-49
2021/12/03 21:54:11;;;;;;;3.17;1.58;;;-4.00;99.90;;;;;;20802216;28;20111;-50
2021/12/03 22:04:13;;;;;;;3.97;1.88;;;-3.50;99.90;;;;;;20801859;28;20041;-48
2021/12/03 22:14:17;;;;;;;5.00;2.35;;;-2.90;99.90;;;;;;20801608;28;20041;-47
2021/12/03 22:24:19;;;;;;;7.70;4.18;;;-2.30;99.90;;;;;;20786908;28;20090;-51
2021/12/03 22:34:22;;;;;;;13.27;7.55;;;-2.10;99.90;;;;;;20758708;28;20046;-49
2021/12/03 22:44:25;;;;;;;17.77;9.40;;;-2.00;99.90;;;;;;20717860;28;20037;-49
2021/12/03 22:54:27;;;;;;;18.02;9.70;;;-1.90;99.90;;;;;;20727456;28;20034;-50
2021/12/03 23:04:35;;;;;;;15.70;8.65;;;-1.90;99.90;;;;;;20732954;28;20066;-47
2021/12/03 23:14:39;;;;;;;9.93;4.78;;;-1.80;99.90;;;;;;20764710;28;20450;-48
2021/12/03 23:24:42;;;;;;;11.10;5.40;;;-1.80;99.90;;;;;;20813475;28;20042;-48
2021/12/03 23:34:45;;;;;;;8.43;4.22;;;-1.90;99.90;;;;;;20812504;28;20072;-51
2021/12/03 23:44:49;;;;;;;14.77;7.80;;;-2.00;99.90;;;;;;20811685;28;20037;-49
2021/12/03 23:54:58;;;;;;;26.73;14.45;;;-1.80;99.90;;;;;;20844267;28;20041;-49
